Time;durP1;ratioP1;P1;durP2;ratioP2;P2;SDS_P1;SDS_P2;PMS_P1;PMS_P2;Temp;Humidity;BMP_temperature;BMP_pressure;BME280_temperature;BME280_humidity;BME280_pressure;Samples;Min_cycle;Max_cycle;Signal;HPM_P1;HPM_P2
2024/04/06 00:00:55;;;;;;;27.10;12.82;;;10.40;99.90;;;;;;4917018;29;20429;-75
2024/04/06 00:03:21;;;;;;;29.45;14.60;;;10.40;99.90;;;;;;4917685;29;20383;-75
2024/04/06 00:05:47;;;;;;;26.48;13.07;;;10.40;99.90;;;;;;4916878;29;20455;-75
2024/04/06 00:08:12;;;;;;;28.38;15.25;;;10.40;99.90;;;;;;4917301;29;20067;-75
2024/04/06 00:10:38;;;;;;;25.98;15.35;;;10.40;99.90;;;;;;4918260;29;20156;-75
2024/04/06 00:13:03;;;;;;;34.38;17.15;;;10.50;99.90;;;;;;4916041;29;20040;-75
2024/04/06 00:15:29;;;;;;;29.33;16.52;;;10.50;99.90;;;;;;4917750;29;20414;-75
2024/04/06 00:17:55;;;;;;;29.77;16.48;;;10.50;99.90;;;;;;4917427;29;20130;-75
2024/04/06 00:20:21;;;;;;;28.88;16.75;;;10.50;99.90;;;;;;4916044;29;20483;-75
2024/04/06 00:22:46;;;;;;;33.28;18.63;;;10.50;99.90;;;;;;4916510;29;20478;-76
2024/04/06 00:25:12;;;;;;;32.17;16.33;;;10.60;99.90;;;;;;4917775;29;20099;-76
2024/04/06 00:27:37;;;;;;;29.15;15.38;;;10.60;99.90;;;;;;4917282;29;20068;-76
2024/04/06 00:30:04;;;;;;;30.33;17.30;;;10.60;99.90;;;;;;4916372;29;20032;-76
2024/04/06 00:32:29;;;;;;;28.10;15.25;;;10.60;99.90;;;;;;4915994;29;20103;-76
2024/04/06 00:34:55;;;;;;;24.70;13.20;;;10.60;99.90;;;;;;4917096;29;20446;-76
2024/04/06 00:37:20;;;;;;;27.80;13.75;;;10.60;99.90;;;;;;4917442;29;20032;-76
2024/04/06 00:39:46;;;;;;;24.85;13.00;;;10.70;99.90;;;;;;4917226;29;20067;-76
2024/04/06 00:42:12;;;;;;;25.67;12.10;;;10.70;99.90;;;;;;4916893;29;20024;-76
2024/04/06 00:44:37;;;;;;;24.23;11.52;;;10.70;99.90;;;;;;4917226;29;20448;-76
2024/04/06 00:47:03;;;;;;;32.20;13.93;;;10.70;99.90;;;;;;4916526;29;20517;-76
2024/04/06 00:49:29;;;;;;;79.47;31.98;;;10.70;99.90;;;;;;4916314;29;20115;-76
2024/04/06 00:51:55;;;;;;;67.75;27.83;;;10.70;99.90;;;;;;4915932;29;20111;-76
2024/04/06 00:54:21;;;;;;;90.60;34.10;;;10.60;99.90;;;;;;4916887;29;20048;-75
2024/04/06 00:56:49;;;;;;;81.45;29.00;;;10.50;99.90;;;;;;4915371;29;20032;-75
2024/04/06 00:59:16;;;;;;;28.67;13.48;;;10.50;99.90;;;;;;4916542;29;20032;-75
2024/04/06 01:01:41;;;;;;;73.25;28.25;;;10.50;99.90;;;;;;4917189;29;20020;-75
2024/04/06 01:04:07;;;;;;;74.25;29.65;;;10.40;99.90;;;;;;4915453;29;20036;-75
2024/04/06 01:06:33;;;;;;;34.97;15.18;;;10.30;99.90;;;;;;4915210;29;20037;-76
2024/04/06 01:08:58;;;;;;;26.63;11.38;;;10.30;99.90;;;;;;4916644;29;20546;-76
2024/04/06 01:11:24;;;;;;;33.42;13.82;;;10.30;99.90;;;;;;4913464;29;20516;-76
2024/04/06 01:13:50;;;;;;;36.55;15.00;;;10.40;99.90;;;;;;4915580;29;20032;-76
2024/04/06 01:16:16;;;;;;;39.42;16.30;;;10.50;99.90;;;;;;4915655;29;20046;-76
2024/04/06 01:18:41;;;;;;;36.33;17.73;;;10.50;99.90;;;;;;4916290;29;20025;-76
2024/04/06 01:21:07;;;;;;;37.25;17.73;;;10.60;99.90;;;;;;4912927;29;20434;-76
2024/04/06 01:23:35;;;;;;;31.08;13.90;;;10.60;99.90;;;;;;4915097;29;20028;-76
2024/04/06 01:26:01;;;;;;;41.50;17.02;;;10.70;99.90;;;;;;4916188;29;20119;-76
2024/04/06 01:28:28;;;;;;;26.80;12.07;;;10.70;99.90;;;;;;4914484;29;20111;-75
2024/04/06 01:30:53;;;;;;;17.63;8.43;;;10.80;99.90;;;;;;4915842;29;20487;-76
2024/04/06 01:33:19;;;;;;;39.78;15.10;;;10.90;99.90;;;;;;4916062;29;20035;-76
2024/04/06 01:35:45;;;;;;;46.58;17.60;;;11.00;99.90;;;;;;4915617;29;20051;-76
2024/04/06 01:38:10;;;;;;;15.95;8.02;;;11.10;99.90;;;;;;4916112;29;20032;-76
2024/04/06 01:40:36;;;;;;;15.63;7.53;;;11.10;99.90;;;;;;4916544;29;20099;-76
2024/04/06 01:43:02;;;;;;;31.45;12.25;;;11.20;99.90;;;;;;4915923;29;20471;-76
2024/04/06 01:45:27;;;;;;;29.45;11.95;;;11.20;99.90;;;;;;4914784;29;20032;-76
2024/04/06 01:47:53;;;;;;;20.88;9.30;;;11.30;99.90;;;;;;4915511;29;20512;-76
2024/04/06 01:50:19;;;;;;;11.65;7.15;;;11.30;99.90;;;;;;4916262;29;20076;-76
2024/04/06 01:52:44;;;;;;;12.75;6.07;;;11.40;99.90;;;;;;4914585;29;20043;-76
2024/04/06 01:55:10;;;;;;;12.45;6.03;;;11.40;99.90;;;;;;4916067;29;20498;-76
2024/04/06 01:57:35;;;;;;;10.38;5.40;;;11.40;99.90;;;;;;4915213;29;20129;-77
2024/04/06 02:00:01;;;;;;;10.02;6.22;;;11.40;99.90;;;;;;4915967;29;20055;-76
2024/04/06 02:02:27;;;;;;;15.05;7.10;;;11.50;99.90;;;;;;4914196;29;20025;-76
2024/04/06 02:04:52;;;;;;;9.85;5.40;;;11.50;99.90;;;;;;4914465;29;20020;-76
2024/04/06 02:07:18;;;;;;;13.85;6.38;;;11.50;99.90;;;;;;4915748;29;20467;-77
2024/04/06 02:09:44;;;;;;;8.98;5.55;;;11.50;99.90;;;;;;4915818;29;20040;-76
2024/04/06 02:12:10;;;;;;;9.00;5.57;;;11.60;99.90;;;;;;4915573;29;20028;-76
2024/04/06 02:14:35;;;;;;;11.02;6.50;;;11.60;99.90;;;;;;4915631;29;20040;-75
2024/04/06 02:17:03;;;;;;;8.02;5.03;;;11.60;99.90;;;;;;4915552;29;20032;-76
2024/04/06 02:19:29;;;;;;;11.80;5.75;;;11.60;99.90;;;;;;4914771;29;20470;-76
2024/04/06 02:21:54;;;;;;;9.82;5.70;;;11.70;99.90;;;;;;4915262;29;20036;-76
2024/04/06 02:24:20;;;;;;;8.07;5.45;;;11.70;99.90;;;;;;4915595;29;20107;-76
2024/04/06 02:26:46;;;;;;;11.15;6.50;;;11.80;99.90;;;;;;4914227;29;20032;-75
2024/04/06 02:29:11;;;;;;;14.68;7.38;;;11.80;99.90;;;;;;4920214;29;20038;-76
2024/04/06 02:31:37;;;;;;;19.05;8.50;;;11.80;99.90;;;;;;4921913;29;20032;-76
2024/04/06 02:34:04;;;;;;;20.08;10.68;;;11.80;99.90;;;;;;4920339;29;20139;-76
2024/04/06 02:36:29;;;;;;;17.33;8.93;;;11.70;99.90;;;;;;4921487;29;20043;-76
2024/04/06 02:38:55;;;;;;;10.65;6.60;;;11.70;99.90;;;;;;4920399;29;20032;-76
2024/04/06 02:41:21;;;;;;;9.32;6.10;;;11.70;99.90;;;;;;4921693;29;20039;-76
2024/04/06 02:43:46;;;;;;;12.93;5.97;;;11.60;99.90;;;;;;4920403;29;20069;-76
2024/04/06 02:46:13;;;;;;;8.95;5.68;;;11.60;99.90;;;;;;4921624;29;20017;-75
2024/04/06 02:48:39;;;;;;;11.80;6.65;;;11.60;99.90;;;;;;4921812;29;20036;-76
2024/04/06 02:51:04;;;;;;;8.38;4.38;;;11.60;99.90;;;;;;4921564;29;20035;-75
2024/04/06 02:53:30;;;;;;;8.20;5.10;;;11.60;99.90;;;;;;4921746;29;20442;-76
2024/04/06 02:55:56;;;;;;;10.18;5.55;;;11.70;99.90;;;;;;4920083;29;20479;-76
2024/04/06 02:58:22;;;;;;;11.00;5.65;;;11.70;99.90;;;;;;4921810;29;20036;-75
2024/04/06 03:00:48;;;;;;;15.43;8.13;;;11.70;99.90;;;;;;4919998;29;20035;-75
2024/04/06 03:03:15;;;;;;;11.75;6.28;;;11.70;99.90;;;;;;4919555;29;20402;-76
2024/04/06 03:05:41;;;;;;;8.85;5.80;;;11.70;99.90;;;;;;4920121;29;20035;-75
2024/04/06 03:08:07;;;;;;;11.93;6.88;;;11.70;99.90;;;;;;4921356;29;20036;-75
2024/04/06 03:10:35;;;;;;;39.60;21.45;;;11.70;99.90;;;;;;4921568;29;20395;-75
2024/04/06 03:13:01;;;;;;;88.57;39.75;;;11.80;99.90;;;;;;4920103;29;20040;-75
2024/04/06 03:15:26;;;;;;;68.45;30.30;;;11.80;99.90;;;;;;4921191;29;20115;-75
2024/04/06 03:17:52;;;;;;;64.95;27.70;;;11.90;99.90;;;;;;4921557;29;20040;-76
2024/04/06 03:20:17;;;;;;;74.05;30.20;;;11.80;99.90;;;;;;4918903;29;20032;-75
2024/04/06 03:23:02;;;;;;;72.72;30.92;;;11.80;99.90;;;;;;4909912;29;20021;-75
2024/04/06 03:25:29;;;;;;;43.97;23.30;;;11.80;99.90;;;;;;4921223;29;20055;-75
2024/04/06 03:27:56;;;;;;;32.72;17.27;;;11.80;99.90;;;;;;4921272;29;20447;-76
2024/04/06 03:30:22;;;;;;;27.88;17.55;;;11.80;99.90;;;;;;4919443;29;20036;-75
2024/04/06 03:32:48;;;;;;;23.63;14.52;;;11.80;99.90;;;;;;4920118;29;20504;-75
2024/04/06 03:35:14;;;;;;;23.48;13.63;;;11.80;99.90;;;;;;4920745;29;20405;-75
2024/04/06 03:37:40;;;;;;;18.48;13.45;;;11.70;99.90;;;;;;4921732;29;20024;-75
2024/04/06 03:40:06;;;;;;;22.40;12.43;;;11.70;99.90;;;;;;4917956;29;20431;-75
2024/04/06 03:42:33;;;;;;;23.02;13.57;;;11.60;99.90;;;;;;4917932;29;20048;-75
2024/04/06 03:44:59;;;;;;;18.30;11.95;;;11.60;99.90;;;;;;4918001;29;20028;-76
2024/04/06 03:47:24;;;;;;;15.20;10.02;;;11.50;99.90;;;;;;4917898;29;20051;-76
2024/04/06 03:49:50;;;;;;;13.55;8.95;;;11.50;99.90;;;;;;4917578;29;20119;-76
2024/04/06 03:52:16;;;;;;;11.23;8.32;;;11.40;99.90;;;;;;4917069;29;20024;-76
2024/04/06 03:54:41;;;;;;;7.68;6.68;;;11.40;99.90;;;;;;4917788;29;20172;-76
2024/04/06 03:57:07;;;;;;;8.43;6.22;;;11.30;99.90;;;;;;4917057;29;20039;-75
2024/04/06 03:59:32;;;;;;;5.55;3.60;;;11.30;99.90;;;;;;4916709;29;20040;-76
2024/04/06 04:01:58;;;;;;;6.55;4.25;;;11.30;99.90;;;;;;4917434;29;20694;-76
2024/04/06 04:04:24;;;;;;;6.13;4.15;;;11.30;99.90;;;;;;4917690;29;20023;-76
2024/04/06 04:06:50;;;;;;;7.07;4.47;;;11.30;99.90;;;;;;4917234;29;20040;-76
2024/04/06 04:09:16;;;;;;;8.10;5.95;;;11.30;99.90;;;;;;4916046;29;20087;-76
2024/04/06 04:11:42;;;;;;;9.13;6.45;;;11.20;99.90;;;;;;4917108;29;20031;-76
2024/04/06 04:14:08;;;;;;;8.25;6.70;;;11.20;99.90;;;;;;4916478;29;20087;-76
2024/04/06 04:16:35;;;;;;;11.77;7.13;;;11.20;99.90;;;;;;4917694;29;20394;-76
2024/04/06 04:19:01;;;;;;;8.80;5.53;;;11.20;99.90;;;;;;4914886;29;20029;-76
2024/04/06 04:21:27;;;;;;;5.95;4.57;;;11.20;99.90;;;;;;4915665;29;20491;-76
2024/04/06 04:23:54;;;;;;;5.90;4.10;;;11.10;99.90;;;;;;4916006;29;20032;-76
2024/04/06 04:26:21;;;;;;;6.47;3.50;;;11.20;99.90;;;;;;4917174;29;20115;-76
2024/04/06 04:28:46;;;;;;;6.60;3.47;;;11.20;99.90;;;;;;4917293;29;20032;-77
2024/04/06 04:31:17;;;;;;;5.15;2.65;;;11.20;99.90;;;;;;4917404;29;20389;-76
2024/04/06 04:33:43;;;;;;;4.35;3.08;;;11.30;99.90;;;;;;4910986;29;20425;-76
2024/04/06 04:36:12;;;;;;;3.38;2.70;;;11.30;99.90;;;;;;4917077;29;20120;-76
2024/04/06 04:38:38;;;;;;;2.80;2.45;;;11.40;99.90;;;;;;4915967;29;20092;-76
2024/04/06 04:41:04;;;;;;;2.83;1.88;;;11.60;99.90;;;;;;4915687;29;20443;-76
2024/04/06 04:43:30;;;;;;;2.13;1.80;;;11.70;99.90;;;;;;4916482;29;20031;-76
2024/04/06 04:45:56;;;;;;;3.10;2.15;;;11.70;99.90;;;;;;4916945;29;20071;-76
2024/04/06 04:48:23;;;;;;;3.90;2.72;;;11.80;99.90;;;;;;4917052;29;20032;-76
2024/04/06 04:50:49;;;;;;;3.88;2.28;;;11.90;99.90;;;;;;4916690;29;20558;-75
2024/04/06 04:53:15;;;;;;;3.55;2.72;;;11.90;99.90;;;;;;4916973;29;20129;-75
2024/04/06 04:55:41;;;;;;;5.45;3.30;;;12.00;99.90;;;;;;4915884;29;20487;-76
2024/04/06 04:58:08;;;;;;;5.72;2.50;;;12.00;99.90;;;;;;4914331;29;20040;-75
2024/04/06 05:00:34;;;;;;;4.97;2.95;;;12.10;99.90;;;;;;4910582;29;20032;-77
2024/04/06 05:02:59;;;;;;;4.97;3.03;;;12.10;99.90;;;;;;4909094;29;20402;-76
2024/04/06 05:05:25;;;;;;;4.07;2.38;;;12.10;99.90;;;;;;4916311;29;20489;-76
2024/04/06 05:07:51;;;;;;;4.10;2.33;;;12.10;99.90;;;;;;4914513;29;20083;-76
2024/04/06 05:10:16;;;;;;;4.47;2.42;;;12.10;99.90;;;;;;4915974;29;20482;-75
2024/04/06 05:12:42;;;;;;;5.40;2.25;;;12.20;99.90;;;;;;4916109;29;20147;-76
2024/04/06 05:15:08;;;;;;;5.43;2.35;;;12.20;99.90;;;;;;4915734;29;20048;-76
2024/04/06 05:17:36;;;;;;;4.15;2.08;;;12.20;99.90;;;;;;4914875;29;20040;-76
2024/04/06 05:20:01;;;;;;;4.93;2.50;;;12.20;99.90;;;;;;4911935;29;20024;-76
2024/04/06 05:22:27;;;;;;;3.80;2.35;;;12.30;99.90;;;;;;4914938;29;20020;-76
2024/04/06 05:24:53;;;;;;;5.55;2.45;;;12.30;99.90;;;;;;4916414;29;20080;-76
2024/04/06 05:27:19;;;;;;;4.35;2.53;;;12.30;99.90;;;;;;4913917;29;20032;-76
2024/04/06 05:29:45;;;;;;;3.75;2.50;;;12.30;99.90;;;;;;4915045;29;20059;-76
2024/04/06 05:32:11;;;;;;;6.20;2.80;;;12.30;99.90;;;;;;4907562;29;20048;-76
2024/04/06 05:34:36;;;;;;;2.72;2.20;;;12.30;99.90;;;;;;4916048;29;20032;-75
2024/04/06 05:37:02;;;;;;;2.95;2.22;;;12.40;99.90;;;;;;4915923;29;20526;-76
2024/04/06 05:39:28;;;;;;;3.10;2.47;;;12.40;99.90;;;;;;4916319;29;20087;-76
2024/04/06 05:41:54;;;;;;;4.22;2.80;;;12.40;99.90;;;;;;4915693;29;20047;-77
2024/04/06 05:44:22;;;;;;;4.57;2.25;;;12.50;99.90;;;;;;4916252;29;20111;-76
2024/04/06 05:46:47;;;;;;;5.35;2.25;;;12.50;99.90;;;;;;4915397;29;20052;-76
2024/04/06 05:49:13;;;;;;;9.05;1.95;;;12.60;99.90;;;;;;4914974;29;20115;-75
2024/04/06 05:51:40;;;;;;;3.90;2.50;;;12.60;99.90;;;;;;4915502;29;20072;-76
2024/04/06 05:54:05;;;;;;;10.10;3.33;;;12.70;99.90;;;;;;4914776;29;20044;-75
2024/04/06 05:56:31;;;;;;;5.20;2.97;;;12.70;99.90;;;;;;4914314;29;20044;-75
2024/04/06 05:58:57;;;;;;;4.45;2.42;;;12.80;99.90;;;;;;4911990;29;20418;-75
2024/04/06 06:01:22;;;;;;;3.42;2.25;;;12.80;99.90;;;;;;4911461;29;20051;-76
2024/04/06 06:03:48;;;;;;;4.55;2.30;;;12.90;99.90;;;;;;4912470;29;20036;-75
2024/04/06 06:06:14;;;;;;;2.88;2.38;;;12.90;99.90;;;;;;4904978;29;20483;-76
2024/04/06 06:08:39;;;;;;;2.65;1.80;;;12.90;99.90;;;;;;4912245;29;20036;-76
2024/04/06 06:11:05;;;;;;;4.03;2.33;;;13.00;99.90;;;;;;4915267;29;20032;-75
2024/04/06 06:13:32;;;;;;;3.83;2.00;;;13.00;99.90;;;;;;4914096;29;20025;-77
2024/04/06 06:15:59;;;;;;;3.42;1.77;;;13.10;99.90;;;;;;4912791;29;20621;-76
2024/04/06 06:18:24;;;;;;;2.97;1.77;;;13.10;99.90;;;;;;4913332;29;20458;-75
2024/04/06 06:20:50;;;;;;;1.83;1.40;;;13.20;99.90;;;;;;4914299;29;20048;-76
2024/04/06 06:23:16;;;;;;;4.18;1.73;;;13.30;99.90;;;;;;4914446;29;20032;-76
2024/04/06 06:25:42;;;;;;;9.52;2.10;;;13.30;99.90;;;;;;4914346;29;20024;-75
2024/04/06 06:28:08;;;;;;;3.75;1.50;;;13.40;99.90;;;;;;4913461;29;20044;-74
2024/04/06 06:30:33;;;;;;;2.92;2.05;;;13.40;99.90;;;;;;4913618;29;20087;-74
2024/04/06 06:32:59;;;;;;;2.33;1.90;;;13.50;99.90;;;;;;4914812;29;20131;-75
2024/04/06 06:35:25;;;;;;;1.52;1.40;;;13.60;99.90;;;;;;4914754;29;20040;-75
2024/04/06 06:37:51;;;;;;;2.42;1.98;;;13.60;99.90;;;;;;4910851;29;20035;-75
2024/04/06 06:40:16;;;;;;;3.30;1.58;;;13.70;99.90;;;;;;4913946;29;20020;-74
2024/04/06 06:42:43;;;;;;;3.80;1.88;;;13.80;99.90;;;;;;4906142;29;20075;-75
2024/04/06 06:45:09;;;;;;;2.08;1.30;;;13.90;99.90;;;;;;4911534;29;20029;-75
2024/04/06 06:47:35;;;;;;;2.50;1.75;;;14.00;99.90;;;;;;4906779;29;20044;-76
2024/04/06 06:50:01;;;;;;;3.08;1.60;;;14.00;99.90;;;;;;4907729;29;20036;-76
2024/04/06 06:52:27;;;;;;;2.08;1.50;;;14.10;99.90;;;;;;4914383;29;20025;-75
2024/04/06 06:54:52;;;;;;;1.52;1.33;;;14.10;99.90;;;;;;4910588;29;20063;-76
2024/04/06 06:57:18;;;;;;;2.75;1.80;;;14.20;99.90;;;;;;4906506;29;20032;-75
2024/04/06 06:59:44;;;;;;;2.33;1.40;;;14.30;99.90;;;;;;4907387;29;20032;-76
2024/04/06 07:02:10;;;;;;;3.83;1.45;;;14.30;99.90;;;;;;4909305;29;20032;-76
2024/04/06 07:04:38;;;;;;;1.30;1.20;;;14.40;99.90;;;;;;4906914;29;20060;-76
2024/04/06 07:07:04;;;;;;;2.22;1.55;;;14.50;99.90;;;;;;4907001;29;20040;-76
2024/04/06 07:09:29;;;;;;;3.35;1.77;;;14.60;99.90;;;;;;4911929;29;20111;-76
2024/04/06 07:11:55;;;;;;;1.67;1.58;;;14.70;99.90;;;;;;4901230;29;20479;-76
2024/04/06 07:14:21;;;;;;;4.13;1.90;;;14.70;99.90;;;;;;4910192;29;20103;-76
2024/04/06 07:16:48;;;;;;;3.03;1.35;;;14.80;99.90;;;;;;4917795;29;20038;-76
2024/04/06 07:19:16;;;;;;;2.00;1.33;;;14.80;99.90;;;;;;4916239;29;20024;-75
2024/04/06 07:21:41;;;;;;;1.95;1.80;;;14.80;99.90;;;;;;4915279;29;20039;-76
2024/04/06 07:24:07;;;;;;;4.07;1.70;;;14.80;99.90;;;;;;4912339;29;20036;-75
2024/04/06 07:26:32;;;;;;;3.08;1.60;;;15.00;99.90;;;;;;4913768;29;20028;-75
2024/04/06 07:28:58;;;;;;;2.53;1.30;;;15.10;97.20;;;;;;4918213;29;20060;-75
2024/04/06 07:31:24;;;;;;;5.95;1.60;;;15.20;97.40;;;;;;4917897;29;20402;-75
2024/04/06 07:33:52;;;;;;;3.10;1.30;;;15.30;96.90;;;;;;4917976;29;20852;-76
2024/04/06 07:36:18;;;;;;;2.90;1.70;;;15.30;90.00;;;;;;4917831;29;20043;-74
2024/04/06 07:38:44;;;;;;;4.70;1.58;;;15.50;90.60;;;;;;4916660;29;20037;-76
2024/04/06 07:41:10;;;;;;;3.33;1.70;;;15.60;91.10;;;;;;4918110;29;20455;-76
2024/04/06 07:43:36;;;;;;;2.08;1.40;;;15.90;89.70;;;;;;4916012;29;20024;-75
2024/04/06 07:46:02;;;;;;;2.47;1.80;;;16.00;84.70;;;;;;4908217;29;20048;-76
2024/04/06 07:48:27;;;;;;;2.30;1.60;;;16.20;85.00;;;;;;4916500;29;20032;-75
2024/04/06 07:50:53;;;;;;;2.28;1.60;;;16.30;80.20;;;;;;4917054;29;20414;-76
2024/04/06 07:53:19;;;;;;;3.65;1.98;;;16.40;77.80;;;;;;4915427;29;20055;-75
2024/04/06 07:55:45;;;;;;;3.80;1.20;;;16.50;75.40;;;;;;4916676;29;20076;-76
2024/04/06 07:58:11;;;;;;;3.22;2.10;;;16.60;71.00;;;;;;4914920;29;20047;-76
2024/04/06 08:00:37;;;;;;;3.47;1.77;;;16.60;68.80;;;;;;4910890;29;20036;-75
2024/04/06 08:03:06;;;;;;;4.18;1.65;;;16.80;70.00;;;;;;4915213;29;20394;-75
2024/04/06 08:05:31;;;;;;;5.28;1.73;;;16.80;69.90;;;;;;4913254;29;20116;-75
2024/04/06 08:07:57;;;;;;;4.00;1.70;;;16.90;67.90;;;;;;4915623;29;20036;-75
2024/04/06 08:10:23;;;;;;;2.03;1.10;;;16.90;67.20;;;;;;4925969;29;20016;-76
2024/04/06 08:12:55;;;;;;;1.95;1.10;;;17.20;67.40;;;;;;4913425;29;20039;-75
2024/04/06 08:15:21;;;;;;;7.05;1.92;;;17.40;66.30;;;;;;4912156;29;20415;-76
2024/04/06 08:17:48;;;;;;;3.58;1.30;;;17.60;67.80;;;;;;4913906;29;20087;-76
2024/04/06 08:20:14;;;;;;;1.95;1.45;;;17.70;65.70;;;;;;4915151;29;20406;-76
2024/04/06 08:22:41;;;;;;;2.58;1.45;;;17.70;66.50;;;;;;4915168;29;20036;-75
2024/04/06 08:25:07;;;;;;;3.95;1.33;;;17.60;66.20;;;;;;4912440;29;20091;-77
2024/04/06 08:27:33;;;;;;;1.83;1.60;;;17.50;66.30;;;;;;4912694;29;20032;-77
2024/04/06 08:30:04;;;;;;;1.30;1.00;;;17.40;66.70;;;;;;4911894;29;20099;-77
2024/04/06 08:32:31;;;;;;;2.45;1.45;;;17.60;68.10;;;;;;4912703;29;20024;-76
2024/04/06 08:34:58;;;;;;;2.90;1.33;;;17.50;66.50;;;;;;4910244;29;20043;-78
2024/04/06 08:37:24;;;;;;;3.08;1.67;;;17.60;67.10;;;;;;4917314;29;20546;-77
2024/04/06 08:39:50;;;;;;;1.92;1.33;;;17.50;66.30;;;;;;4914044;29;20120;-76
2024/04/06 08:42:20;;;;;;;2.17;1.25;;;17.50;68.30;;;;;;4916280;29;20028;-76
2024/04/06 08:44:47;;;;;;;1.20;1.10;;;17.60;68.30;;;;;;4907568;29;20115;-76
2024/04/06 08:47:19;;;;;;;2.30;1.40;;;17.50;66.80;;;;;;4916328;29;20044;-76
2024/04/06 08:49:45;;;;;;;3.42;1.15;;;17.40;66.90;;;;;;4915261;29;20046;-78
2024/04/06 08:52:13;;;;;;;2.45;1.30;;;17.40;67.20;;;;;;4911871;29;20140;-75
2024/04/06 08:54:40;;;;;;;2.65;1.60;;;17.40;67.80;;;;;;4914103;29;20047;-76
2024/04/06 08:57:06;;;;;;;3.53;1.30;;;17.50;69.50;;;;;;4913743;29;20038;-76
2024/04/06 08:59:33;;;;;;;3.20;1.55;;;17.60;68.70;;;;;;4914195;29;20032;-76
2024/04/06 09:02:00;;;;;;;3.30;1.85;;;17.60;68.50;;;;;;4913355;29;20126;-76
2024/04/06 09:04:26;;;;;;;4.05;1.40;;;17.60;68.00;;;;;;4901401;29;20028;-76
2024/04/06 09:06:51;;;;;;;3.67;1.65;;;17.70;69.50;;;;;;4914602;29;20449;-76
2024/04/06 09:09:17;;;;;;;7.25;1.83;;;17.70;68.50;;;;;;4914750;29;20115;-76
2024/04/06 09:11:44;;;;;;;3.88;1.30;;;17.80;68.40;;;;;;4913666;29;20486;-76
2024/04/06 09:14:10;;;;;;;2.35;1.60;;;17.80;67.40;;;;;;4914633;29;20062;-76
2024/04/06 09:16:37;;;;;;;3.05;1.60;;;17.80;67.90;;;;;;4915765;29;20020;-76
2024/04/06 09:19:03;;;;;;;3.25;1.13;;;17.90;67.40;;;;;;4915913;29;20040;-77
2024/04/06 09:21:32;;;;;;;4.25;1.45;;;17.90;67.50;;;;;;4916069;29;20032;-76
2024/04/06 09:23:59;;;;;;;3.72;1.40;;;17.90;67.80;;;;;;4915593;29;20486;-76
2024/04/06 09:26:30;;;;;;;1.98;1.40;;;18.00;68.00;;;;;;4915977;29;20394;-77
2024/04/06 09:28:58;;;;;;;5.60;1.63;;;17.90;66.10;;;;;;4915180;29;20441;-76
2024/04/06 09:31:23;;;;;;;5.13;2.17;;;17.90;66.50;;;;;;4914673;29;20509;-76
2024/04/06 09:33:55;;;;;;;4.30;1.58;;;17.90;66.60;;;;;;4916464;29;20024;-76
2024/04/06 09:36:21;;;;;;;3.85;1.70;;;18.00;66.70;;;;;;4910900;29;20521;-76
2024/04/06 09:38:48;;;;;;;2.83;1.38;;;18.20;69.00;;;;;;4909297;29;20036;-76
2024/04/06 09:41:16;;;;;;;4.07;1.42;;;18.50;68.30;;;;;;4914824;29;20058;-75
2024/04/06 09:43:48;;;;;;;1.55;1.40;;;18.50;66.00;;;;;;4914439;29;20171;-76
2024/04/06 09:46:15;;;;;;;2.78;1.45;;;18.60;66.50;;;;;;4914080;29;20143;-75
2024/04/06 09:48:44;;;;;;;2.75;1.15;;;18.70;66.10;;;;;;4915180;29;20036;-75
2024/04/06 09:51:09;;;;;;;2.40;1.20;;;18.90;66.20;;;;;;4913772;29;20033;-76
2024/04/06 09:53:37;;;;;;;3.53;1.42;;;18.90;65.60;;;;;;4915319;29;20028;-76
2024/04/06 09:56:04;;;;;;;1.52;1.13;;;19.00;65.00;;;;;;4915181;29;20118;-75
2024/04/06 09:58:32;;;;;;;1.95;1.30;;;18.80;63.70;;;;;;4915154;29;20020;-75
2024/04/06 10:01:07;;;;;;;3.38;1.25;;;19.00;64.10;;;;;;4911414;29;20041;-75
2024/04/06 10:03:36;;;;;;;3.22;1.02;;;18.90;64.30;;;;;;4907867;29;20399;-75
2024/04/06 10:06:15;;;;;;;4.03;1.25;;;18.80;63.90;;;;;;4913273;29;20047;-76
2024/04/06 10:09:00;;;;;;;2.33;1.42;;;18.80;63.30;;;;;;4910390;29;20055;-75
2024/04/06 10:11:29;;;;;;;2.22;1.50;;;18.90;64.10;;;;;;4910988;29;20497;-76
2024/04/06 10:14:04;;;;;;;1.27;1.15;;;18.80;63.70;;;;;;4911858;29;20028;-76
2024/04/06 10:16:33;;;;;;;3.15;1.58;;;18.70;63.00;;;;;;4915389;29;20103;-76
2024/04/06 10:19:00;;;;;;;2.15;1.23;;;18.90;63.70;;;;;;4915103;29;20585;-76
2024/04/06 10:21:33;;;;;;;4.60;1.77;;;19.20;65.30;;;;;;4912335;29;20513;-77
2024/04/06 10:24:03;;;;;;;3.75;1.48;;;19.50;64.60;;;;;;4914927;29;20091;-77
2024/04/06 10:26:29;;;;;;;1.40;1.25;;;19.70;64.00;;;;;;4911537;29;20028;-77
2024/04/06 10:28:56;;;;;;;4.45;1.45;;;19.70;62.20;;;;;;4914685;29;20039;-77
2024/04/06 10:31:21;;;;;;;1.90;1.40;;;19.50;62.50;;;;;;4913701;29;20482;-77
2024/04/06 10:33:47;;;;;;;3.60;1.80;;;19.40;61.90;;;;;;4914116;29;20039;-77
2024/04/06 10:36:13;;;;;;;1.98;1.45;;;19.40;62.50;;;;;;4915046;29;20056;-77
2024/04/06 10:38:39;;;;;;;2.80;1.38;;;19.40;61.70;;;;;;4905014;29;20063;-77
2024/04/06 10:41:06;;;;;;;1.33;1.15;;;19.40;62.10;;;;;;4914848;29;20044;-77
2024/04/06 10:43:32;;;;;;;1.20;1.10;;;19.30;62.20;;;;;;4915890;29;20028;-77
2024/04/06 10:45:59;;;;;;;1.77;1.50;;;19.50;62.90;;;;;;4914138;29;20498;-78
2024/04/06 10:48:25;;;;;;;2.88;1.30;;;19.40;61.90;;;;;;4915435;29;20072;-78
2024/04/06 10:50:51;;;;;;;2.58;1.17;;;19.40;62.70;;;;;;4917198;29;20044;-77
2024/04/06 10:53:18;;;;;;;3.08;1.30;;;19.20;62.30;;;;;;4918734;29;20501;-78
2024/04/06 10:55:46;;;;;;;3.08;1.40;;;19.30;62.30;;;;;;4919003;29;20536;-77
2024/04/06 10:58:12;;;;;;;2.38;1.25;;;19.50;62.50;;;;;;4919182;29;20028;-78
2024/04/06 11:00:41;;;;;;;5.78;1.40;;;19.50;62.40;;;;;;4917867;29;20063;-77
2024/04/06 11:03:07;;;;;;;5.22;1.65;;;19.70;62.20;;;;;;4917618;29;20437;-78
2024/04/06 11:05:37;;;;;;;3.50;1.27;;;20.00;63.50;;;;;;4917318;29;20041;-78
2024/04/06 11:08:07;;;;;;;4.57;1.30;;;20.20;62.20;;;;;;4917944;29;20028;-77
2024/04/06 11:10:33;;;;;;;2.20;1.45;;;20.10;61.30;;;;;;4915568;29;20024;-77
2024/04/06 11:13:00;;;;;;;6.85;1.83;;;20.10;60.90;;;;;;4914037;29;20603;-77
2024/04/06 11:15:27;;;;;;;2.22;1.27;;;20.00;61.00;;;;;;4915941;29;20037;-77
2024/04/06 11:17:57;;;;;;;2.67;1.25;;;20.20;62.20;;;;;;4915376;29;20490;-77
2024/04/06 11:20:24;;;;;;;2.92;1.42;;;20.20;59.10;;;;;;4914650;29;20032;-77
2024/04/06 11:22:50;;;;;;;1.30;1.20;;;20.30;60.20;;;;;;4917321;29;20035;-77
2024/04/06 11:25:17;;;;;;;1.58;1.27;;;20.30;59.60;;;;;;4917578;29;20028;-77
2024/04/06 11:27:50;;;;;;;3.83;1.25;;;20.30;59.90;;;;;;4915995;29;20441;-77
2024/04/06 11:30:18;;;;;;;7.15;1.40;;;20.40;58.60;;;;;;4911877;29;20052;-77
2024/04/06 11:32:44;;;;;;;2.33;1.13;;;20.50;58.40;;;;;;4911481;29;20028;-77
2024/04/06 11:35:11;;;;;;;2.97;1.20;;;20.40;58.00;;;;;;4912319;29;20116;-77
2024/04/06 11:37:38;;;;;;;2.05;1.15;;;20.40;58.40;;;;;;4918785;29;20371;-78
2024/04/06 11:40:04;;;;;;;4.63;1.67;;;20.30;57.90;;;;;;4917642;29;20047;-77
2024/04/06 11:42:30;;;;;;;1.92;1.65;;;20.60;59.00;;;;;;4915094;29;20051;-77
2024/04/06 11:44:55;;;;;;;5.15;1.58;;;20.70;59.10;;;;;;4906903;29;20049;-76
2024/04/06 11:47:21;;;;;;;2.25;0.95;;;20.80;57.80;;;;;;4908762;29;20544;-78
2024/04/06 11:49:48;;;;;;;4.13;1.25;;;20.90;56.60;;;;;;4906152;29;20469;-77
2024/04/06 11:52:14;;;;;;;3.95;1.48;;;20.80;55.80;;;;;;4908064;29;20100;-76
2024/04/06 11:54:39;;;;;;;3.53;1.77;;;21.00;56.70;;;;;;4907646;29;20122;-76
2024/04/06 11:57:05;;;;;;;3.40;1.50;;;21.10;57.10;;;;;;4914688;29;20398;-77
2024/04/06 11:59:31;;;;;;;2.10;1.50;;;21.20;56.60;;;;;;4910003;29;20047;-77
2024/04/06 12:01:57;;;;;;;3.63;1.70;;;20.90;55.30;;;;;;4912110;29;20020;-76
2024/04/06 12:04:22;;;;;;;4.43;1.33;;;20.90;55.50;;;;;;4915055;29;20031;-78
2024/04/06 12:06:48;;;;;;;2.15;1.40;;;20.90;55.40;;;;;;4912898;29;20069;-77
2024/04/06 12:09:14;;;;;;;1.60;1.35;;;20.80;54.90;;;;;;4914618;29;20501;-77
2024/04/06 12:11:40;;;;;;;5.55;1.52;;;20.60;54.70;;;;;;4903435;29;20041;-77
2024/04/06 12:14:05;;;;;;;4.32;1.60;;;20.70;55.60;;;;;;4913244;29;20091;-76
2024/04/06 12:16:31;;;;;;;1.75;1.45;;;20.60;54.10;;;;;;4916638;29;20036;-77
2024/04/06 12:18:58;;;;;;;1.75;1.30;;;20.70;54.90;;;;;;4916774;29;20040;-77
2024/04/06 12:21:24;;;;;;;2.60;1.10;;;20.70;55.60;;;;;;4910745;29;20490;-76
2024/04/06 12:23:49;;;;;;;4.53;1.33;;;20.60;54.70;;;;;;4915300;29;20032;-77
2024/04/06 12:26:15;;;;;;;1.25;0.95;;;20.70;54.60;;;;;;4915268;29;20111;-76
2024/04/06 12:28:41;;;;;;;2.30;1.00;;;20.70;54.80;;;;;;4916129;29;20036;-77
2024/04/06 12:31:07;;;;;;;2.45;1.25;;;20.70;54.10;;;;;;4915067;29;20040;-76
2024/04/06 12:33:32;;;;;;;1.60;1.45;;;20.50;53.80;;;;;;4914810;29;20060;-77
2024/04/06 12:35:58;;;;;;;7.25;1.67;;;20.50;54.10;;;;;;4914082;29;20402;-77
2024/04/06 12:38:24;;;;;;;3.80;1.45;;;20.40;54.10;;;;;;4912055;29;20032;-77